sensor_id;sensor_type;location;lat;lon;timestamp;P1;durP1;ratioP1;P2;durP2;ratioP2
68284;SDS011;55114;52.052;5.238;2023-05-07T00:00:44;17.55;;;11.65;;
68284;SDS011;55114;52.052;5.238;2023-05-07T00:03:11;19.02;;;11.90;;
68284;SDS011;55114;52.052;5.238;2023-05-07T00:05:40;18.58;;;11.18;;
68284;SDS011;55114;52.052;5.238;2023-05-07T00:08:07;17.38;;;11.77;;
68284;SDS011;55114;52.052;5.238;2023-05-07T00:10:35;17.43;;;11.53;;
68284;SDS011;55114;52.052;5.238;2023-05-07T00:13:02;17.73;;;11.07;;
68284;SDS011;55114;52.052;5.238;2023-05-07T00:15:29;16.10;;;11.00;;
68284;SDS011;55114;52.052;5.238;2023-05-07T00:17:57;18.20;;;10.98;;
68284;SDS011;55114;52.052;5.238;2023-05-07T00:20:25;15.95;;;10.90;;
68284;SDS011;55114;52.052;5.238;2023-05-07T00:22:52;17.00;;;10.83;;
68284;SDS011;55114;52.052;5.238;2023-05-07T00:25:20;16.42;;;10.50;;
68284;SDS011;55114;52.052;5.238;2023-05-07T00:27:47;17.23;;;10.70;;
68284;SDS011;55114;52.052;5.238;2023-05-07T00:30:14;17.65;;;10.35;;
68284;SDS011;55114;52.052;5.238;2023-05-07T00:32:42;16.50;;;10.73;;
68284;SDS011;55114;52.052;5.238;2023-05-07T00:35:11;16.20;;;9.93;;
68284;SDS011;55114;52.052;5.238;2023-05-07T00:37:39;16.88;;;10.50;;
68284;SDS011;55114;52.052;5.238;2023-05-07T00:40:06;15.20;;;10.63;;
68284;SDS011;55114;52.052;5.238;2023-05-07T00:42:35;15.27;;;9.90;;
68284;SDS011;55114;52.052;5.238;2023-05-07T00:45:02;15.80;;;10.40;;
68284;SDS011;55114;52.052;5.238;2023-05-07T00:47:30;17.83;;;10.23;;
68284;SDS011;55114;52.052;5.238;2023-05-07T00:49:58;15.23;;;9.75;;
68284;SDS011;55114;52.052;5.238;2023-05-07T00:52:25;15.52;;;9.55;;
68284;SDS011;55114;52.052;5.238;2023-05-07T00:54:55;14.13;;;9.77;;
68284;SDS011;55114;52.052;5.238;2023-05-07T00:57:22;16.15;;;10.15;;
68284;SDS011;55114;52.052;5.238;2023-05-07T00:59:51;13.83;;;9.30;;
68284;SDS011;55114;52.052;5.238;2023-05-07T01:02:19;14.63;;;9.55;;
68284;SDS011;55114;52.052;5.238;2023-05-07T01:04:46;14.60;;;10.20;;
68284;SDS011;55114;52.052;5.238;2023-05-07T01:07:14;14.15;;;9.35;;
68284;SDS011;55114;52.052;5.238;2023-05-07T01:09:41;14.73;;;9.60;;
68284;SDS011;55114;52.052;5.238;2023-05-07T01:12:09;14.07;;;9.97;;
68284;SDS011;55114;52.052;5.238;2023-05-07T01:14:37;16.55;;;9.88;;
68284;SDS011;55114;52.052;5.238;2023-05-07T01:17:04;14.63;;;9.88;;
68284;SDS011;55114;52.052;5.238;2023-05-07T01:19:32;15.02;;;9.57;;
68284;SDS011;55114;52.052;5.238;2023-05-07T01:22:03;13.15;;;8.95;;
68284;SDS011;55114;52.052;5.238;2023-05-07T01:24:33;13.77;;;8.90;;
68284;SDS011;55114;52.052;5.238;2023-05-07T01:27:02;14.75;;;9.32;;
68284;SDS011;55114;52.052;5.238;2023-05-07T01:29:29;15.07;;;9.45;;
68284;SDS011;55114;52.052;5.238;2023-05-07T01:31:57;14.57;;;9.48;;
68284;SDS011;55114;52.052;5.238;2023-05-07T01:34:27;14.70;;;9.75;;
68284;SDS011;55114;52.052;5.238;2023-05-07T01:36:55;15.90;;;10.07;;
68284;SDS011;55114;52.052;5.238;2023-05-07T01:39:24;13.88;;;9.75;;
68284;SDS011;55114;52.052;5.238;2023-05-07T01:41:53;15.20;;;9.25;;
68284;SDS011;55114;52.052;5.238;2023-05-07T01:44:22;13.02;;;8.88;;
68284;SDS011;55114;52.052;5.238;2023-05-07T01:46:49;13.73;;;9.27;;
68284;SDS011;55114;52.052;5.238;2023-05-07T01:49:17;14.77;;;9.63;;
68284;SDS011;55114;52.052;5.238;2023-05-07T01:51:44;14.40;;;9.80;;
68284;SDS011;55114;52.052;5.238;2023-05-07T01:54:12;14.73;;;9.45;;
68284;SDS011;55114;52.052;5.238;2023-05-07T01:56:39;13.50;;;9.02;;
68284;SDS011;55114;52.052;5.238;2023-05-07T01:59:06;14.40;;;9.75;;
68284;SDS011;55114;52.052;5.238;2023-05-07T02:01:34;14.77;;;9.50;;
68284;SDS011;55114;52.052;5.238;2023-05-07T02:04:01;14.93;;;9.88;;
68284;SDS011;55114;52.052;5.238;2023-05-07T02:06:28;15.43;;;10.23;;
68284;SDS011;55114;52.052;5.238;2023-05-07T02:08:57;15.98;;;9.75;;
68284;SDS011;55114;52.052;5.238;2023-05-07T02:11:24;14.40;;;9.85;;
68284;SDS011;55114;52.052;5.238;2023-05-07T02:13:52;16.70;;;9.93;;
68284;SDS011;55114;52.052;5.238;2023-05-07T02:16:19;15.88;;;10.07;;
68284;SDS011;55114;52.052;5.238;2023-05-07T02:18:47;15.32;;;10.27;;
68284;SDS011;55114;52.052;5.238;2023-05-07T02:21:14;17.02;;;9.98;;
68284;SDS011;55114;52.052;5.238;2023-05-07T02:23:42;14.63;;;9.75;;
68284;SDS011;55114;52.052;5.238;2023-05-07T02:26:10;15.37;;;10.03;;
68284;SDS011;55114;52.052;5.238;2023-05-07T02:28:37;15.82;;;9.55;;
68284;SDS011;55114;52.052;5.238;2023-05-07T02:31:04;15.18;;;9.80;;
68284;SDS011;55114;52.052;5.238;2023-05-07T02:33:32;16.02;;;9.65;;
68284;SDS011;55114;52.052;5.238;2023-05-07T02:36:08;14.20;;;10.10;;
68284;SDS011;55114;52.052;5.238;2023-05-07T02:38:35;15.07;;;9.40;;
68284;SDS011;55114;52.052;5.238;2023-05-07T02:41:02;15.27;;;9.75;;
68284;SDS011;55114;52.052;5.238;2023-05-07T02:43:29;15.18;;;10.10;;
68284;SDS011;55114;52.052;5.238;2023-05-07T02:46:01;16.02;;;9.35;;
68284;SDS011;55114;52.052;5.238;2023-05-07T02:48:28;16.60;;;10.07;;
68284;SDS011;55114;52.052;5.238;2023-05-07T02:50:56;13.93;;;9.27;;
68284;SDS011;55114;52.052;5.238;2023-05-07T02:53:24;16.77;;;9.45;;
68284;SDS011;55114;52.052;5.238;2023-05-07T02:55:56;14.75;;;9.43;;
68284;SDS011;55114;52.052;5.238;2023-05-07T02:58:23;17.63;;;9.38;;
68284;SDS011;55114;52.052;5.238;2023-05-07T03:00:51;14.45;;;9.40;;
68284;SDS011;55114;52.052;5.238;2023-05-07T03:03:18;15.67;;;9.87;;
68284;SDS011;55114;52.052;5.238;2023-05-07T03:05:46;16.10;;;9.88;;
68284;SDS011;55114;52.052;5.238;2023-05-07T03:08:13;14.95;;;9.93;;
68284;SDS011;55114;52.052;5.238;2023-05-07T03:10:40;14.35;;;9.50;;
68284;SDS011;55114;52.052;5.238;2023-05-07T03:13:07;16.25;;;9.60;;
68284;SDS011;55114;52.052;5.238;2023-05-07T03:15:35;14.00;;;9.53;;
68284;SDS011;55114;52.052;5.238;2023-05-07T03:18:02;16.98;;;9.63;;
68284;SDS011;55114;52.052;5.238;2023-05-07T03:20:30;14.13;;;9.30;;
68284;SDS011;55114;52.052;5.238;2023-05-07T03:22:58;14.50;;;10.05;;
68284;SDS011;55114;52.052;5.238;2023-05-07T03:25:25;15.70;;;9.65;;
68284;SDS011;55114;52.052;5.238;2023-05-07T03:27:52;18.27;;;9.60;;
68284;SDS011;55114;52.052;5.238;2023-05-07T03:30:20;15.60;;;9.85;;
68284;SDS011;55114;52.052;5.238;2023-05-07T03:32:47;14.25;;;10.07;;
68284;SDS011;55114;52.052;5.238;2023-05-07T03:35:14;17.27;;;9.02;;
68284;SDS011;55114;52.052;5.238;2023-05-07T03:37:42;15.05;;;9.27;;
68284;SDS011;55114;52.052;5.238;2023-05-07T03:40:09;15.13;;;9.60;;
68284;SDS011;55114;52.052;5.238;2023-05-07T03:42:39;14.98;;;9.55;;
68284;SDS011;55114;52.052;5.238;2023-05-07T03:45:06;16.13;;;9.77;;
68284;SDS011;55114;52.052;5.238;2023-05-07T03:47:34;15.43;;;9.55;;
68284;SDS011;55114;52.052;5.238;2023-05-07T03:50:01;18.20;;;10.30;;
68284;SDS011;55114;52.052;5.238;2023-05-07T03:52:28;17.03;;;9.23;;
68284;SDS011;55114;52.052;5.238;2023-05-07T03:54:56;17.25;;;9.82;;
68284;SDS011;55114;52.052;5.238;2023-05-07T03:57:23;17.25;;;10.13;;
68284;SDS011;55114;52.052;5.238;2023-05-07T03:59:50;16.05;;;10.15;;
68284;SDS011;55114;52.052;5.238;2023-05-07T04:02:17;19.33;;;11.18;;
68284;SDS011;55114;52.052;5.238;2023-05-07T04:04:45;18.77;;;10.63;;
68284;SDS011;55114;52.052;5.238;2023-05-07T04:07:12;18.33;;;11.30;;
68284;SDS011;55114;52.052;5.238;2023-05-07T04:09:40;19.25;;;11.70;;
68284;SDS011;55114;52.052;5.238;2023-05-07T04:12:07;19.50;;;12.02;;
68284;SDS011;55114;52.052;5.238;2023-05-07T04:14:35;17.65;;;10.95;;
68284;SDS011;55114;52.052;5.238;2023-05-07T04:17:02;19.23;;;11.30;;
68284;SDS011;55114;52.052;5.238;2023-05-07T04:19:29;18.30;;;11.43;;
68284;SDS011;55114;52.052;5.238;2023-05-07T04:21:57;22.35;;;12.30;;
68284;SDS011;55114;52.052;5.238;2023-05-07T04:24:24;18.92;;;11.68;;
68284;SDS011;55114;52.052;5.238;2023-05-07T04:26:51;21.08;;;12.40;;
68284;SDS011;55114;52.052;5.238;2023-05-07T04:29:19;19.87;;;11.80;;
68284;SDS011;55114;52.052;5.238;2023-05-07T04:31:47;18.73;;;12.18;;
68284;SDS011;55114;52.052;5.238;2023-05-07T04:34:14;20.00;;;12.07;;
68284;SDS011;55114;52.052;5.238;2023-05-07T04:36:41;19.73;;;12.27;;
68284;SDS011;55114;52.052;5.238;2023-05-07T04:39:09;20.25;;;12.35;;
68284;SDS011;55114;52.052;5.238;2023-05-07T04:41:37;17.70;;;10.23;;
68284;SDS011;55114;52.052;5.238;2023-05-07T04:44:04;20.17;;;12.13;;
68284;SDS011;55114;52.052;5.238;2023-05-07T04:46:32;17.30;;;11.95;;
68284;SDS011;55114;52.052;5.238;2023-05-07T04:48:59;20.30;;;11.77;;
68284;SDS011;55114;52.052;5.238;2023-05-07T04:51:26;20.48;;;12.93;;
68284;SDS011;55114;52.052;5.238;2023-05-07T04:53:54;20.03;;;12.60;;
68284;SDS011;55114;52.052;5.238;2023-05-07T04:56:21;19.73;;;12.80;;
68284;SDS011;55114;52.052;5.238;2023-05-07T04:58:48;20.00;;;13.18;;
68284;SDS011;55114;52.052;5.238;2023-05-07T05:01:15;23.52;;;13.27;;
68284;SDS011;55114;52.052;5.238;2023-05-07T05:03:43;21.17;;;13.30;;
68284;SDS011;55114;52.052;5.238;2023-05-07T05:06:10;22.60;;;13.83;;
68284;SDS011;55114;52.052;5.238;2023-05-07T05:08:37;21.70;;;13.23;;
68284;SDS011;55114;52.052;5.238;2023-05-07T05:11:04;21.33;;;13.70;;
68284;SDS011;55114;52.052;5.238;2023-05-07T05:13:32;20.85;;;13.00;;
68284;SDS011;55114;52.052;5.238;2023-05-07T05:15:59;19.42;;;12.80;;
68284;SDS011;55114;52.052;5.238;2023-05-07T05:18:27;21.37;;;13.63;;
68284;SDS011;55114;52.052;5.238;2023-05-07T05:20:54;22.45;;;12.73;;
68284;SDS011;55114;52.052;5.238;2023-05-07T05:23:21;20.60;;;13.85;;
68284;SDS011;55114;52.052;5.238;2023-05-07T05:25:48;20.17;;;12.88;;
68284;SDS011;55114;52.052;5.238;2023-05-07T05:28:16;20.27;;;13.00;;
68284;SDS011;55114;52.052;5.238;2023-05-07T05:30:43;23.50;;;13.67;;
68284;SDS011;55114;52.052;5.238;2023-05-07T05:33:10;22.17;;;13.63;;
68284;SDS011;55114;52.052;5.238;2023-05-07T05:35:38;21.27;;;13.85;;
68284;SDS011;55114;52.052;5.238;2023-05-07T05:38:05;22.95;;;13.50;;
68284;SDS011;55114;52.052;5.238;2023-05-07T05:40:32;21.80;;;13.82;;
68284;SDS011;55114;52.052;5.238;2023-05-07T05:42:59;21.00;;;12.90;;
68284;SDS011;55114;52.052;5.238;2023-05-07T05:45:27;23.60;;;13.75;;
68284;SDS011;55114;52.052;5.238;2023-05-07T05:47:55;23.40;;;13.23;;
68284;SDS011;55114;52.052;5.238;2023-05-07T05:50:23;24.27;;;14.05;;
68284;SDS011;55114;52.052;5.238;2023-05-07T05:52:51;20.00;;;12.73;;
68284;SDS011;55114;52.052;5.238;2023-05-07T05:55:18;21.83;;;12.87;;
68284;SDS011;55114;52.052;5.238;2023-05-07T05:57:46;20.70;;;12.57;;
68284;SDS011;55114;52.052;5.238;2023-05-07T06:00:13;19.13;;;13.07;;
68284;SDS011;55114;52.052;5.238;2023-05-07T06:02:42;22.77;;;12.95;;
68284;SDS011;55114;52.052;5.238;2023-05-07T06:05:09;19.67;;;13.00;;
68284;SDS011;55114;52.052;5.238;2023-05-07T06:07:37;24.47;;;13.43;;
68284;SDS011;55114;52.052;5.238;2023-05-07T06:10:04;19.25;;;12.38;;
68284;SDS011;55114;52.052;5.238;2023-05-07T06:12:32;20.73;;;13.15;;
68284;SDS011;55114;52.052;5.238;2023-05-07T06:14:59;24.05;;;13.38;;
68284;SDS011;55114;52.052;5.238;2023-05-07T06:17:26;22.60;;;13.75;;
68284;SDS011;55114;52.052;5.238;2023-05-07T06:19:53;19.13;;;12.70;;
68284;SDS011;55114;52.052;5.238;2023-05-07T06:22:21;20.90;;;13.43;;
68284;SDS011;55114;52.052;5.238;2023-05-07T06:24:48;20.15;;;13.15;;
68284;SDS011;55114;52.052;5.238;2023-05-07T06:27:15;20.20;;;12.77;;
68284;SDS011;55114;52.052;5.238;2023-05-07T06:29:42;26.05;;;15.18;;
68284;SDS011;55114;52.052;5.238;2023-05-07T06:32:11;22.40;;;12.27;;
68284;SDS011;55114;52.052;5.238;2023-05-07T06:34:39;20.65;;;11.95;;
68284;SDS011;55114;52.052;5.238;2023-05-07T06:37:06;21.10;;;12.25;;
68284;SDS011;55114;52.052;5.238;2023-05-07T06:39:34;20.88;;;12.50;;
68284;SDS011;55114;52.052;5.238;2023-05-07T06:42:01;20.45;;;12.27;;
68284;SDS011;55114;52.052;5.238;2023-05-07T06:44:30;18.43;;;12.20;;
68284;SDS011;55114;52.052;5.238;2023-05-07T06:46:58;18.38;;;11.85;;
68284;SDS011;55114;52.052;5.238;2023-05-07T06:49:25;20.42;;;12.77;;
68284;SDS011;55114;52.052;5.238;2023-05-07T06:51:52;20.55;;;12.40;;
68284;SDS011;55114;52.052;5.238;2023-05-07T06:54:20;20.05;;;12.63;;
68284;SDS011;55114;52.052;5.238;2023-05-07T06:56:49;19.83;;;12.30;;
68284;SDS011;55114;52.052;5.238;2023-05-07T06:59:16;19.60;;;12.13;;
68284;SDS011;55114;52.052;5.238;2023-05-07T07:01:45;20.25;;;12.30;;
68284;SDS011;55114;52.052;5.238;2023-05-07T07:04:13;21.33;;;13.18;;
68284;SDS011;55114;52.052;5.238;2023-05-07T07:06:40;19.40;;;12.70;;
68284;SDS011;55114;52.052;5.238;2023-05-07T07:09:08;22.50;;;12.20;;
68284;SDS011;55114;52.052;5.238;2023-05-07T07:11:35;20.92;;;12.45;;
68284;SDS011;55114;52.052;5.238;2023-05-07T07:14:02;21.90;;;12.85;;
68284;SDS011;55114;52.052;5.238;2023-05-07T07:16:31;20.98;;;12.70;;
68284;SDS011;55114;52.052;5.238;2023-05-07T07:18:58;17.70;;;11.98;;
68284;SDS011;55114;52.052;5.238;2023-05-07T07:21:25;18.53;;;11.40;;
68284;SDS011;55114;52.052;5.238;2023-05-07T07:23:53;20.55;;;12.05;;
68284;SDS011;55114;52.052;5.238;2023-05-07T07:26:20;19.88;;;12.35;;
68284;SDS011;55114;52.052;5.238;2023-05-07T07:28:47;19.85;;;12.43;;
68284;SDS011;55114;52.052;5.238;2023-05-07T07:31:15;20.90;;;13.25;;
68284;SDS011;55114;52.052;5.238;2023-05-07T07:33:42;20.40;;;13.03;;
68284;SDS011;55114;52.052;5.238;2023-05-07T07:36:10;22.00;;;12.63;;
68284;SDS011;55114;52.052;5.238;2023-05-07T07:38:37;21.30;;;13.35;;
68284;SDS011;55114;52.052;5.238;2023-05-07T07:41:04;22.20;;;13.25;;
68284;SDS011;55114;52.052;5.238;2023-05-07T07:43:31;22.08;;;13.60;;
68284;SDS011;55114;52.052;5.238;2023-05-07T07:45:58;21.50;;;13.30;;
68284;SDS011;55114;52.052;5.238;2023-05-07T07:48:26;20.52;;;12.48;;
68284;SDS011;55114;52.052;5.238;2023-05-07T07:50:53;22.05;;;13.65;;
68284;SDS011;55114;52.052;5.238;2023-05-07T07:53:21;21.45;;;13.07;;
68284;SDS011;55114;52.052;5.238;2023-05-07T07:55:48;21.58;;;12.80;;
68284;SDS011;55114;52.052;5.238;2023-05-07T07:58:16;20.93;;;13.27;;
68284;SDS011;55114;52.052;5.238;2023-05-07T08:00:43;20.85;;;13.25;;
68284;SDS011;55114;52.052;5.238;2023-05-07T08:03:10;20.90;;;12.70;;
68284;SDS011;55114;52.052;5.238;2023-05-07T08:05:38;19.00;;;12.25;;
68284;SDS011;55114;52.052;5.238;2023-05-07T08:08:05;20.42;;;12.65;;
68284;SDS011;55114;52.052;5.238;2023-05-07T08:10:33;18.90;;;12.40;;
68284;SDS011;55114;52.052;5.238;2023-05-07T08:13:01;20.05;;;12.38;;
68284;SDS011;55114;52.052;5.238;2023-05-07T08:15:30;18.83;;;12.45;;
68284;SDS011;55114;52.052;5.238;2023-05-07T08:17:58;18.45;;;11.90;;
68284;SDS011;55114;52.052;5.238;2023-05-07T08:20:26;18.17;;;11.43;;
68284;SDS011;55114;52.052;5.238;2023-05-07T08:22:53;18.97;;;11.53;;
68284;SDS011;55114;52.052;5.238;2023-05-07T08:25:21;19.13;;;12.05;;
68284;SDS011;55114;52.052;5.238;2023-05-07T08:27:48;19.65;;;12.65;;
68284;SDS011;55114;52.052;5.238;2023-05-07T08:30:15;19.75;;;12.02;;
68284;SDS011;55114;52.052;5.238;2023-05-07T08:32:43;19.00;;;11.55;;
68284;SDS011;55114;52.052;5.238;2023-05-07T08:35:10;21.27;;;11.80;;
68284;SDS011;55114;52.052;5.238;2023-05-07T08:37:37;19.10;;;12.00;;
68284;SDS011;55114;52.052;5.238;2023-05-07T08:40:05;21.38;;;12.73;;
68284;SDS011;55114;52.052;5.238;2023-05-07T08:42:37;19.40;;;11.98;;
68284;SDS011;55114;52.052;5.238;2023-05-07T08:45:07;20.35;;;13.45;;
68284;SDS011;55114;52.052;5.238;2023-05-07T08:47:40;20.43;;;13.27;;
68284;SDS011;55114;52.052;5.238;2023-05-07T08:50:07;19.48;;;12.27;;
68284;SDS011;55114;52.052;5.238;2023-05-07T08:52:35;19.90;;;13.02;;
68284;SDS011;55114;52.052;5.238;2023-05-07T08:55:03;21.02;;;11.52;;
68284;SDS011;55114;52.052;5.238;2023-05-07T08:57:30;20.00;;;12.70;;
68284;SDS011;55114;52.052;5.238;2023-05-07T08:59:57;14.73;;;9.37;;
68284;SDS011;55114;52.052;5.238;2023-05-07T09:02:25;15.77;;;10.15;;
68284;SDS011;55114;52.052;5.238;2023-05-07T09:04:53;14.43;;;9.63;;
68284;SDS011;55114;52.052;5.238;2023-05-07T09:07:20;15.48;;;10.02;;
68284;SDS011;55114;52.052;5.238;2023-05-07T09:09:48;15.27;;;8.80;;
68284;SDS011;55114;52.052;5.238;2023-05-07T09:12:15;12.17;;;7.60;;
68284;SDS011;55114;52.052;5.238;2023-05-07T09:14:42;13.43;;;8.80;;
68284;SDS011;55114;52.052;5.238;2023-05-07T09:17:09;13.43;;;8.60;;
68284;SDS011;55114;52.052;5.238;2023-05-07T09:19:37;14.05;;;8.38;;
68284;SDS011;55114;52.052;5.238;2023-05-07T09:22:05;14.32;;;8.98;;
68284;SDS011;55114;52.052;5.238;2023-05-07T09:24:35;11.53;;;7.47;;
68284;SDS011;55114;52.052;5.238;2023-05-07T09:27:04;13.63;;;7.30;;
68284;SDS011;55114;52.052;5.238;2023-05-07T09:29:34;13.65;;;8.35;;
68284;SDS011;55114;52.052;5.238;2023-05-07T09:32:02;13.88;;;8.63;;
68284;SDS011;55114;52.052;5.238;2023-05-07T09:34:30;12.35;;;7.68;;
68284;SDS011;55114;52.052;5.238;2023-05-07T09:37:04;12.13;;;7.00;;
68284;SDS011;55114;52.052;5.238;2023-05-07T09:39:41;10.95;;;7.05;;
68284;SDS011;55114;52.052;5.238;2023-05-07T09:42:08;10.68;;;6.80;;
68284;SDS011;55114;52.052;5.238;2023-05-07T09:44:37;9.48;;;6.10;;
68284;SDS011;55114;52.052;5.238;2023-05-07T09:47:05;10.43;;;6.10;;
68284;SDS011;55114;52.052;5.238;2023-05-07T09:49:37;8.77;;;5.43;;
68284;SDS011;55114;52.052;5.238;2023-05-07T09:52:05;8.25;;;5.40;;
68284;SDS011;55114;52.052;5.238;2023-05-07T09:54:35;9.00;;;5.10;;
68284;SDS011;55114;52.052;5.238;2023-05-07T09:57:04;11.07;;;6.38;;
68284;SDS011;55114;52.052;5.238;2023-05-07T09:59:33;10.38;;;6.93;;
68284;SDS011;55114;52.052;5.238;2023-05-07T10:02:01;12.20;;;7.80;;
68284;SDS011;55114;52.052;5.238;2023-05-07T10:04:30;12.98;;;7.55;;
68284;SDS011;55114;52.052;5.238;2023-05-07T10:06:59;12.77;;;8.18;;
68284;SDS011;55114;52.052;5.238;2023-05-07T10:09:27;13.48;;;7.82;;
68284;SDS011;55114;52.052;5.238;2023-05-07T10:11:54;12.88;;;9.02;;
68284;SDS011;55114;52.052;5.238;2023-05-07T10:14:23;13.17;;;9.30;;
68284;SDS011;55114;52.052;5.238;2023-05-07T10:16:50;14.48;;;9.38;;
68284;SDS011;55114;52.052;5.238;2023-05-07T10:19:18;14.00;;;9.23;;
68284;SDS011;55114;52.052;5.238;2023-05-07T10:21:59;14.68;;;10.00;;
68284;SDS011;55114;52.052;5.238;2023-05-07T10:24:29;16.50;;;10.20;;
68284;SDS011;55114;52.052;5.238;2023-05-07T10:27:00;14.10;;;10.33;;
68284;SDS011;55114;52.052;5.238;2023-05-07T10:29:39;14.90;;;9.75;;
68284;SDS011;55114;52.052;5.238;2023-05-07T10:34:40;13.82;;;10.10;;
68284;SDS011;55114;52.052;5.238;2023-05-07T10:37:09;14.73;;;10.30;;
68284;SDS011;55114;52.052;5.238;2023-05-07T10:39:37;14.80;;;10.57;;
68284;SDS011;55114;52.052;5.238;2023-05-07T10:42:10;14.65;;;11.02;;
68284;SDS011;55114;52.052;5.238;2023-05-07T10:44:38;15.27;;;11.07;;
68284;SDS011;55114;52.052;5.238;2023-05-07T10:47:15;17.65;;;11.40;;
68284;SDS011;55114;52.052;5.238;2023-05-07T10:52:18;13.57;;;10.77;;
68284;SDS011;55114;52.052;5.238;2023-05-07T10:54:46;14.27;;;10.77;;
68284;SDS011;55114;52.052;5.238;2023-05-07T10:57:32;13.82;;;11.75;;
68284;SDS011;55114;52.052;5.238;2023-05-07T11:00:48;14.23;;;11.30;;
68284;SDS011;55114;52.052;5.238;2023-05-07T11:03:04;12.95;;;10.50;;
68284;SDS011;55114;52.052;5.238;2023-05-07T11:05:33;12.87;;;10.50;;
68284;SDS011;55114;52.052;5.238;2023-05-07T11:08:04;14.85;;;11.20;;
68284;SDS011;55114;52.052;5.238;2023-05-07T11:10:47;14.25;;;11.48;;
68284;SDS011;55114;52.052;5.238;2023-05-07T11:13:15;14.88;;;10.85;;
68284;SDS011;55114;52.052;5.238;2023-05-07T11:15:46;14.18;;;10.95;;
68284;SDS011;55114;52.052;5.238;2023-05-07T11:18:14;13.33;;;10.23;;
68284;SDS011;55114;52.052;5.238;2023-05-07T11:26:07;12.80;;;10.50;;
68284;SDS011;55114;52.052;5.238;2023-05-07T11:28:38;14.13;;;9.90;;
68284;SDS011;55114;52.052;5.238;2023-05-07T11:31:06;13.30;;;10.07;;
68284;SDS011;55114;52.052;5.238;2023-05-07T11:33:35;13.15;;;9.77;;
68284;SDS011;55114;52.052;5.238;2023-05-07T11:36:03;13.13;;;9.70;;
68284;SDS011;55114;52.052;5.238;2023-05-07T11:38:34;13.07;;;10.48;;
68284;SDS011;55114;52.052;5.238;2023-05-07T11:41:02;14.32;;;10.90;;
68284;SDS011;55114;52.052;5.238;2023-05-07T11:43:31;14.10;;;10.37;;
68284;SDS011;55114;52.052;5.238;2023-05-07T11:46:07;15.13;;;10.15;;
68284;SDS011;55114;52.052;5.238;2023-05-07T11:48:35;14.40;;;10.38;;
68284;SDS011;55114;52.052;5.238;2023-05-07T11:51:05;14.30;;;9.55;;
68284;SDS011;55114;52.052;5.238;2023-05-07T11:53:36;11.57;;;8.77;;
68284;SDS011;55114;52.052;5.238;2023-05-07T11:56:07;14.30;;;8.87;;
68284;SDS011;55114;52.052;5.238;2023-05-07T11:58:34;12.68;;;9.10;;
68284;SDS011;55114;52.052;5.238;2023-05-07T12:01:02;12.27;;;9.55;;
68284;SDS011;55114;52.052;5.238;2023-05-07T12:03:29;17.10;;;10.73;;
68284;SDS011;55114;52.052;5.238;2023-05-07T12:06:01;14.30;;;11.25;;
68284;SDS011;55114;52.052;5.238;2023-05-07T12:08:28;12.43;;;10.13;;
68284;SDS011;55114;52.052;5.238;2023-05-07T12:10:57;14.80;;;10.35;;
68284;SDS011;55114;52.052;5.238;2023-05-07T12:13:24;13.20;;;10.13;;
68284;SDS011;55114;52.052;5.238;2023-05-07T12:15:52;12.88;;;10.30;;
68284;SDS011;55114;52.052;5.238;2023-05-07T12:18:20;14.00;;;9.68;;
68284;SDS011;55114;52.052;5.238;2023-05-07T12:20:48;12.83;;;10.57;;
68284;SDS011;55114;52.052;5.238;2023-05-07T12:23:16;14.40;;;10.85;;
68284;SDS011;55114;52.052;5.238;2023-05-07T12:25:44;14.38;;;11.13;;
68284;SDS011;55114;52.052;5.238;2023-05-07T12:28:14;15.45;;;11.38;;
68284;SDS011;55114;52.052;5.238;2023-05-07T12:30:42;15.40;;;11.98;;
68284;SDS011;55114;52.052;5.238;2023-05-07T12:33:10;14.90;;;11.30;;
68284;SDS011;55114;52.052;5.238;2023-05-07T12:35:42;14.48;;;9.93;;
68284;SDS011;55114;52.052;5.238;2023-05-07T12:38:13;12.27;;;10.68;;
68284;SDS011;55114;52.052;5.238;2023-05-07T12:40:44;14.52;;;11.00;;
68284;SDS011;55114;52.052;5.238;2023-05-07T12:43:15;14.45;;;10.65;;
68284;SDS011;55114;52.052;5.238;2023-05-07T12:45:44;15.30;;;10.47;;
68284;SDS011;55114;52.052;5.238;2023-05-07T12:48:11;15.07;;;9.95;;
68284;SDS011;55114;52.052;5.238;2023-05-07T12:50:39;14.88;;;9.25;;
68284;SDS011;55114;52.052;5.238;2023-05-07T12:53:07;14.18;;;7.93;;
68284;SDS011;55114;52.052;5.238;2023-05-07T12:55:44;8.55;;;6.50;;
68284;SDS011;55114;52.052;5.238;2023-05-07T12:58:28;9.67;;;6.43;;
68284;SDS011;55114;52.052;5.238;2023-05-07T13:01:00;9.60;;;5.78;;
68284;SDS011;55114;52.052;5.238;2023-05-07T13:03:31;7.22;;;4.95;;
68284;SDS011;55114;52.052;5.238;2023-05-07T13:06:01;7.10;;;4.40;;
68284;SDS011;55114;52.052;5.238;2023-05-07T13:10:59;10.43;;;4.97;;
68284;SDS011;55114;52.052;5.238;2023-05-07T13:13:30;7.63;;;4.03;;
68284;SDS011;55114;52.052;5.238;2023-05-07T13:15:58;7.22;;;4.10;;
68284;SDS011;55114;52.052;5.238;2023-05-07T13:18:26;9.02;;;4.30;;
68284;SDS011;55114;52.052;5.238;2023-05-07T13:20:54;9.00;;;4.32;;
68284;SDS011;55114;52.052;5.238;2023-05-07T13:23:21;6.03;;;3.53;;
68284;SDS011;55114;52.052;5.238;2023-05-07T13:25:49;6.85;;;3.60;;
68284;SDS011;55114;52.052;5.238;2023-05-07T13:28:16;8.70;;;3.83;;
68284;SDS011;55114;52.052;5.238;2023-05-07T13:30:44;7.55;;;3.88;;
68284;SDS011;55114;52.052;5.238;2023-05-07T13:33:11;6.88;;;3.75;;
68284;SDS011;55114;52.052;5.238;2023-05-07T13:35:38;7.13;;;3.97;;
68284;SDS011;55114;52.052;5.238;2023-05-07T13:38:06;6.13;;;3.17;;
68284;SDS011;55114;52.052;5.238;2023-05-07T13:40:33;6.93;;;3.35;;
68284;SDS011;55114;52.052;5.238;2023-05-07T13:43:00;5.50;;;3.30;;
68284;SDS011;55114;52.052;5.238;2023-05-07T13:45:29;7.85;;;3.65;;
68284;SDS011;55114;52.052;5.238;2023-05-07T13:47:56;6.13;;;3.33;;
68284;SDS011;55114;52.052;5.238;2023-05-07T13:50:24;7.32;;;3.95;;
68284;SDS011;55114;52.052;5.238;2023-05-07T13:52:53;6.72;;;3.88;;
68284;SDS011;55114;52.052;5.238;2023-05-07T13:55:20;8.55;;;4.35;;
68284;SDS011;55114;52.052;5.238;2023-05-07T13:57:54;6.82;;;4.20;;
68284;SDS011;55114;52.052;5.238;2023-05-07T14:00:22;7.83;;;5.10;;
68284;SDS011;55114;52.052;5.238;2023-05-07T14:02:49;7.93;;;5.25;;
68284;SDS011;55114;52.052;5.238;2023-05-07T14:05:16;9.35;;;5.50;;
68284;SDS011;55114;52.052;5.238;2023-05-07T14:07:44;11.52;;;6.63;;
68284;SDS011;55114;52.052;5.238;2023-05-07T14:10:11;10.02;;;6.80;;
68284;SDS011;55114;52.052;5.238;2023-05-07T14:12:39;13.17;;;6.90;;
68284;SDS011;55114;52.052;5.238;2023-05-07T14:15:07;10.48;;;7.20;;
68284;SDS011;55114;52.052;5.238;2023-05-07T14:17:34;10.50;;;7.70;;
68284;SDS011;55114;52.052;5.238;2023-05-07T14:20:02;11.38;;;7.55;;
68284;SDS011;55114;52.052;5.238;2023-05-07T14:22:29;10.52;;;7.93;;
68284;SDS011;55114;52.052;5.238;2023-05-07T14:24:56;10.30;;;7.50;;
68284;SDS011;55114;52.052;5.238;2023-05-07T14:27:32;11.98;;;7.50;;
68284;SDS011;55114;52.052;5.238;2023-05-07T14:29:59;9.13;;;6.97;;
68284;SDS011;55114;52.052;5.238;2023-05-07T14:32:26;11.35;;;7.10;;
68284;SDS011;55114;52.052;5.238;2023-05-07T14:34:54;9.23;;;7.28;;
68284;SDS011;55114;52.052;5.238;2023-05-07T14:37:21;9.30;;;6.70;;
68284;SDS011;55114;52.052;5.238;2023-05-07T14:39:48;9.25;;;7.00;;
68284;SDS011;55114;52.052;5.238;2023-05-07T14:42:16;9.27;;;6.90;;
68284;SDS011;55114;52.052;5.238;2023-05-07T14:44:44;11.18;;;6.78;;
68284;SDS011;55114;52.052;5.238;2023-05-07T14:47:12;11.38;;;6.40;;